createdAt,value
2018-08-24T00:01:45.434Z,2.77
2018-08-24T00:04:29.129Z,2.80
2018-08-24T00:07:00.159Z,2.87
2018-08-24T00:09:30.060Z,2.97
2018-08-24T00:12:02.395Z,2.90
2018-08-24T00:14:47.242Z,2.93
2018-08-24T00:17:21.736Z,3.10
2018-08-24T00:19:50.858Z,2.93
2018-08-24T00:22:21.160Z,3.03
2018-08-24T00:24:53.869Z,3.27
2018-08-24T00:27:24.278Z,3.07
2018-08-24T00:29:53.513Z,3.07
2018-08-24T00:32:27.438Z,3.40
2018-08-24T00:34:57.473Z,2.97
2018-08-24T00:37:28.132Z,3.60
2018-08-24T00:39:57.162Z,3.27
2018-08-24T00:42:28.576Z,3.07
2018-08-24T00:44:58.335Z,3.30
2018-08-24T00:47:27.762Z,3.40
2018-08-24T00:49:57.095Z,3.30
2018-08-24T00:52:26.546Z,3.07
2018-08-24T00:58:15.244Z,4.00
2018-08-24T01:00:46.439Z,3.03
2018-08-24T01:03:16.631Z,3.17
2018-08-24T01:05:46.271Z,3.03
2018-08-24T01:08:16.360Z,3.47
2018-08-24T01:10:47.198Z,3.67
2018-08-24T01:13:16.869Z,3.43
2018-08-24T01:15:53.903Z,3.50
2018-08-24T01:18:29.417Z,3.20
2018-08-24T01:20:58.760Z,3.00
2018-08-24T01:23:31.843Z,3.20
2018-08-24T01:26:05.846Z,3.37
2018-08-24T01:28:35.368Z,3.00
2018-08-24T01:31:08.706Z,3.23
2018-08-24T01:33:39.866Z,3.30
2018-08-24T01:36:11.387Z,3.03
2018-08-24T01:38:40.570Z,3.50
2018-08-24T01:41:09.211Z,2.97
2018-08-24T01:43:38.769Z,3.20
2018-08-24T01:49:32.148Z,3.27
2018-08-24T01:52:03.806Z,3.17
2018-08-24T01:54:34.130Z,3.10
2018-08-24T01:57:05.218Z,3.40
2018-08-24T01:59:35.146Z,3.23
2018-08-24T02:02:05.583Z,3.17
2018-08-24T02:04:35.968Z,3.70
2018-08-24T02:07:06.373Z,3.23
2018-08-24T02:09:37.028Z,3.40
2018-08-24T02:12:11.245Z,3.53
2018-08-24T02:14:41.747Z,3.50
2018-08-24T02:17:33.653Z,3.30
2018-08-24T02:20:10.563Z,3.27
2018-08-24T02:22:40.410Z,3.17
2018-08-24T02:25:10.291Z,3.70
2018-08-24T02:27:41.149Z,3.23
2018-08-24T02:30:09.800Z,3.40
2018-08-24T02:32:38.679Z,3.47
2018-08-24T02:35:09.560Z,3.00
2018-08-24T02:37:38.313Z,3.57
2018-08-24T02:40:07.186Z,3.17
2018-08-24T02:42:36.289Z,3.57
2018-08-24T02:45:07.183Z,3.50
2018-08-24T02:50:53.935Z,3.40
2018-08-24T02:53:25.721Z,3.60
2018-08-24T02:55:55.554Z,3.73
2018-08-24T02:58:25.717Z,3.90
2018-08-24T03:00:55.614Z,3.37
2018-08-24T03:03:26.400Z,3.50
2018-08-24T03:05:55.696Z,3.33
2018-08-24T03:08:28.508Z,3.43
2018-08-24T03:10:59.506Z,3.60
2018-08-24T03:13:29.343Z,3.50
2018-08-24T03:15:58.218Z,3.47
2018-08-24T03:24:03.465Z,3.30
2018-08-24T03:26:34.126Z,3.43
2018-08-24T03:29:03.605Z,3.20
2018-08-24T03:31:34.159Z,3.47
2018-08-24T03:34:04.177Z,3.80
2018-08-24T03:36:33.041Z,3.57
2018-08-24T03:39:04.420Z,3.43
2018-08-24T03:41:33.642Z,3.70
2018-08-24T03:44:02.996Z,3.60
2018-08-24T03:46:32.783Z,3.30
2018-08-24T03:49:03.686Z,3.40
2018-08-24T03:51:33.755Z,3.33
2018-08-24T03:54:07.826Z,3.60
2018-08-24T03:56:37.314Z,3.93
2018-08-24T03:59:07.339Z,3.77
2018-08-24T04:01:44.439Z,3.47
2018-08-24T04:04:15.086Z,4.23
2018-08-24T04:06:44.043Z,3.60
2018-08-24T04:09:18.250Z,3.87
2018-08-24T04:11:50.153Z,3.77
2018-08-24T04:14:20.456Z,3.67
2018-08-24T04:16:55.307Z,3.57
2018-08-24T04:19:28.026Z,3.50
2018-08-24T04:22:00.366Z,3.80
2018-08-24T04:24:29.714Z,3.77
2018-08-24T04:26:59.799Z,3.63
2018-08-24T04:29:28.871Z,3.47
2018-08-24T04:32:01.369Z,3.57
2018-08-24T04:34:32.280Z,3.90
2018-08-24T04:37:01.402Z,3.90
2018-08-24T04:39:31.882Z,3.70
2018-08-24T04:42:03.964Z,3.40
2018-08-24T04:44:33.323Z,3.50
2018-08-24T04:47:02.677Z,3.90
2018-08-24T04:49:38.138Z,3.57
2018-08-24T04:55:21.323Z,3.40
2018-08-24T04:57:51.820Z,3.90
2018-08-24T05:00:22.659Z,3.67
2018-08-24T05:02:52.882Z,3.50
2018-08-24T05:05:29.030Z,3.57
2018-08-24T05:07:59.008Z,3.43
2018-08-24T05:10:28.447Z,3.50
2018-08-24T05:12:58.819Z,3.07
2018-08-24T05:15:29.410Z,3.17
2018-08-24T05:17:59.701Z,3.33
2018-08-24T05:20:29.266Z,3.23
2018-08-24T05:22:58.399Z,3.37
2018-08-24T05:25:33.253Z,3.03
2018-08-24T05:28:03.699Z,2.90
2018-08-24T05:30:35.270Z,2.90
2018-08-24T05:33:05.066Z,2.90
2018-08-24T05:35:39.270Z,3.10
2018-08-24T05:38:10.751Z,3.43
2018-08-24T05:40:40.535Z,3.00
2018-08-24T05:43:11.633Z,3.00
2018-08-24T05:45:42.095Z,3.03
2018-08-24T05:48:11.966Z,3.27
2018-08-24T05:50:42.342Z,3.10
2018-08-24T05:53:12.294Z,3.17
2018-08-24T05:55:43.212Z,2.97
2018-08-24T05:58:12.178Z,2.87
2018-08-24T06:00:42.635Z,3.17
2018-08-24T06:03:12.409Z,2.73
2018-08-24T06:05:46.895Z,3.27
2018-08-24T06:08:15.446Z,2.83
2018-08-24T06:10:46.567Z,2.80
2018-08-24T06:13:18.391Z,2.80
2018-08-24T06:15:55.232Z,2.90
2018-08-24T06:18:25.297Z,3.43
2018-08-24T06:20:55.537Z,2.87
2018-08-24T06:23:26.943Z,2.90
2018-08-24T06:26:10.158Z,2.63
2018-08-24T06:28:39.819Z,3.00
2018-08-24T06:31:09.213Z,2.87
2018-08-24T06:33:39.971Z,3.00
2018-08-24T06:36:10.769Z,2.90
2018-08-24T06:38:41.360Z,3.10
2018-08-24T06:41:10.000Z,3.73
2018-08-24T06:43:38.803Z,3.07
2018-08-24T06:46:09.449Z,3.00
2018-08-24T06:48:39.050Z,2.90
2018-08-24T06:51:10.282Z,2.63
2018-08-24T06:53:41.845Z,3.10
2018-08-24T06:56:11.304Z,2.90
2018-08-24T06:58:42.562Z,2.40
2018-08-24T07:01:11.732Z,2.87
2018-08-24T07:03:41.943Z,2.60
2018-08-24T07:06:15.315Z,2.50
2018-08-24T07:08:45.237Z,2.60
2018-08-24T07:11:19.106Z,2.80
2018-08-24T07:13:50.807Z,2.87
2018-08-24T07:16:33.823Z,2.30
2018-08-24T07:19:03.871Z,2.73
2018-08-24T07:21:33.587Z,2.40
2018-08-24T07:24:03.135Z,2.97
2018-08-24T07:26:35.385Z,2.40
2018-08-24T07:29:05.166Z,2.47
2018-08-24T07:31:35.616Z,2.87
2018-08-24T07:34:06.135Z,3.37
2018-08-24T07:36:38.316Z,2.93
2018-08-24T07:39:10.759Z,3.13
2018-08-24T07:41:44.184Z,2.77
2018-08-24T07:44:14.481Z,3.03
2018-08-24T07:46:46.458Z,2.97
2018-08-24T07:49:15.773Z,2.90
2018-08-24T07:51:44.820Z,2.97
2018-08-24T07:54:14.239Z,2.73
2018-08-24T07:56:42.757Z,2.80
2018-08-24T07:59:14.215Z,2.90
2018-08-24T08:01:44.783Z,2.57
2018-08-24T08:04:14.391Z,2.50
2018-08-24T08:06:45.042Z,2.40
2018-08-24T08:09:16.988Z,2.87
2018-08-24T08:11:48.228Z,2.30
2018-08-24T08:14:20.017Z,2.27
2018-08-24T08:16:55.760Z,2.13
2018-08-24T08:19:25.800Z,2.30
2018-08-24T08:21:56.135Z,2.63
2018-08-24T08:24:28.014Z,2.30
2018-08-24T08:26:58.737Z,2.60
2018-08-24T08:29:35.306Z,2.77
2018-08-24T08:32:08.895Z,2.90
2018-08-24T08:34:43.202Z,2.77
2018-08-24T08:37:15.290Z,2.63
2018-08-24T08:39:45.806Z,2.97
2018-08-24T08:42:15.937Z,3.23
2018-08-24T08:44:47.386Z,2.63
2018-08-24T08:47:23.617Z,2.43
2018-08-24T08:49:54.347Z,3.00
2018-08-24T08:52:24.054Z,2.97
2018-08-24T08:54:54.971Z,2.77
2018-08-24T09:00:21.201Z,2.57
2018-08-24T09:02:53.566Z,2.73
2018-08-24T09:05:24.486Z,2.83
2018-08-24T09:07:55.539Z,2.70
2018-08-24T09:10:34.494Z,3.53
2018-08-24T09:13:04.523Z,3.40
2018-08-24T09:15:35.677Z,3.63
2018-08-24T09:18:10.505Z,5.63
2018-08-24T09:20:47.392Z,4.50
2018-08-24T09:23:23.014Z,4.23
2018-08-24T09:25:59.166Z,3.17
2018-08-24T09:28:38.207Z,7.10
2018-08-24T09:31:22.662Z,8.67
2018-08-24T09:33:53.711Z,6.57
2018-08-24T09:36:24.063Z,6.23
2018-08-24T09:39:07.459Z,4.73
2018-08-24T09:41:43.410Z,5.33
2018-08-24T09:44:14.266Z,4.30
2018-08-24T09:46:50.554Z,4.30
2018-08-24T09:49:30.267Z,4.27
2018-08-24T09:52:06.614Z,3.93
2018-08-24T09:54:37.154Z,3.93
2018-08-24T09:57:08.782Z,4.53
2018-08-24T09:59:41.979Z,4.00
2018-08-24T10:02:17.034Z,4.70
2018-08-24T10:04:52.594Z,4.43
2018-08-24T10:07:27.460Z,3.83
2018-08-24T10:10:05.005Z,4.13
2018-08-24T10:12:36.750Z,4.67
2018-08-24T10:15:08.564Z,3.87
2018-08-24T10:17:39.455Z,4.30
2018-08-24T10:20:12.963Z,4.30
2018-08-24T10:22:44.779Z,4.80
2018-08-24T10:25:15.099Z,4.40
2018-08-24T10:27:45.840Z,5.40
2018-08-24T10:30:34.783Z,5.73
2018-08-24T10:33:04.960Z,6.17
2018-08-24T10:35:37.944Z,6.87
2018-08-24T10:38:09.584Z,7.03
2018-08-24T10:40:40.773Z,7.23
2018-08-24T10:43:10.020Z,6.63
2018-08-24T10:45:43.216Z,6.73
2018-08-24T10:48:12.918Z,6.33
2018-08-24T10:50:43.451Z,7.10
2018-08-24T10:53:14.580Z,7.60
2018-08-24T10:55:44.773Z,7.43
2018-08-24T10:58:15.782Z,6.60
2018-08-24T11:00:47.598Z,7.13
2018-08-24T11:03:17.124Z,7.07
2018-08-24T11:05:46.906Z,7.10
2018-08-24T11:08:16.931Z,6.23
2018-08-24T11:10:49.351Z,7.40
2018-08-24T11:13:19.852Z,7.20
2018-08-24T11:15:50.345Z,7.43
2018-08-24T11:18:20.495Z,7.07
2018-08-24T11:20:51.125Z,7.03
2018-08-24T11:23:22.407Z,7.00
2018-08-24T11:25:51.030Z,6.77
2018-08-24T11:28:21.096Z,7.40
2018-08-24T11:31:04.019Z,6.93
2018-08-24T11:33:38.908Z,7.70
2018-08-24T11:36:09.123Z,7.90
2018-08-24T11:38:43.550Z,7.30
2018-08-24T11:41:14.091Z,8.03
2018-08-24T11:43:44.617Z,6.77
2018-08-24T11:46:15.080Z,7.30
2018-08-24T11:48:45.639Z,7.10
2018-08-24T11:51:28.282Z,7.33
2018-08-24T11:54:00.001Z,6.63
2018-08-24T11:56:29.680Z,6.10
2018-08-24T11:58:59.358Z,6.50
2018-08-24T12:01:31.049Z,6.40
2018-08-24T12:04:01.181Z,6.43
2018-08-24T12:06:30.761Z,6.60
2018-08-24T12:09:01.407Z,6.97
2018-08-24T12:11:33.829Z,6.70
2018-08-24T12:14:04.755Z,6.50
2018-08-24T12:16:34.429Z,6.87
2018-08-24T12:19:03.887Z,6.53
2018-08-24T12:21:34.671Z,6.57
2018-08-24T12:24:04.571Z,6.57
2018-08-24T12:26:34.597Z,6.80
2018-08-24T12:29:07.667Z,6.03
2018-08-24T12:31:38.788Z,6.30
2018-08-24T12:34:08.193Z,6.63
2018-08-24T12:36:38.953Z,6.57
2018-08-24T12:39:12.279Z,6.33
2018-08-24T12:41:45.435Z,6.90
2018-08-24T12:44:16.903Z,6.40
2018-08-24T12:46:46.558Z,6.80
2018-08-24T12:49:17.771Z,6.53
2018-08-24T12:51:48.549Z,6.47
2018-08-24T13:00:27.775Z,6.13
2018-08-24T13:02:57.137Z,6.10
2018-08-24T13:05:27.235Z,6.20
2018-08-24T13:07:57.509Z,6.03
2018-08-24T13:10:27.644Z,6.47
2018-08-24T13:12:57.303Z,6.40
2018-08-24T13:15:27.866Z,6.33
2018-08-24T13:17:57.841Z,6.50
2018-08-24T13:20:26.457Z,6.30
2018-08-24T13:22:56.919Z,6.87
2018-08-24T13:25:27.069Z,6.73
2018-08-24T13:27:57.818Z,7.50
2018-08-24T13:30:27.570Z,6.77
2018-08-24T13:32:58.232Z,6.60
2018-08-24T13:35:29.057Z,6.57
2018-08-24T13:37:59.162Z,6.03
2018-08-24T13:40:29.702Z,6.40
2018-08-24T13:43:00.367Z,5.70
2018-08-24T13:45:33.395Z,5.67
2018-08-24T13:48:05.677Z,6.50
2018-08-24T13:50:34.226Z,6.70
2018-08-24T13:53:04.986Z,6.17
2018-08-24T13:55:37.978Z,7.43
2018-08-24T13:58:08.318Z,6.03
2018-08-24T14:00:38.833Z,6.87
2018-08-24T14:03:10.713Z,6.20
2018-08-24T14:05:41.355Z,5.87
2018-08-24T14:08:27.767Z,6.07
2018-08-24T14:11:02.632Z,6.27
2018-08-24T14:13:36.368Z,6.37
2018-08-24T14:16:29.697Z,5.93
2018-08-24T14:19:08.585Z,6.10
2018-08-24T14:23:01.786Z,6.13
2018-08-24T14:28:37.965Z,6.33
2018-08-24T14:31:07.196Z,6.43
2018-08-24T14:36:19.612Z,6.63
2018-08-24T14:38:49.041Z,6.70
2018-08-24T14:44:05.654Z,6.63
2018-08-24T14:46:34.791Z,7.20
2018-08-24T14:49:12.264Z,6.57
2018-08-24T14:54:41.710Z,4.83
2018-08-24T14:57:45.922Z,5.80
2018-08-24T15:00:15.570Z,5.80
2018-08-24T15:02:44.166Z,5.23
2018-08-24T15:06:21.395Z,5.50
2018-08-24T15:08:50.511Z,5.30
2018-08-24T15:11:19.862Z,4.80
2018-08-24T15:14:08.038Z,5.20
2018-08-24T15:16:42.544Z,5.70
2018-08-24T15:19:11.959Z,5.30
2018-08-24T15:21:48.535Z,5.10
2018-08-24T15:24:23.865Z,4.83
2018-08-24T15:30:18.634Z,5.03
2018-08-24T15:35:40.147Z,4.97
2018-08-24T15:38:26.471Z,5.80
2018-08-24T15:41:06.129Z,6.10
2018-08-24T15:47:37.926Z,5.00
2018-08-24T15:50:09.180Z,4.87
2018-08-24T15:52:52.063Z,5.33
2018-08-24T15:55:20.683Z,5.87
2018-08-24T16:05:54.780Z,54.97
2018-08-24T16:08:24.330Z,24.20
2018-08-24T16:10:56.283Z,15.67
2018-08-24T16:16:13.008Z,6.80
2018-08-24T16:18:51.356Z,6.40
2018-08-24T16:21:21.777Z,6.13
2018-08-24T16:24:09.430Z,6.70
2018-08-24T16:26:39.285Z,6.53
2018-08-24T16:29:07.852Z,7.17
2018-08-24T16:31:36.384Z,5.27
2018-08-24T16:34:08.156Z,5.37
2018-08-24T16:36:37.247Z,5.20
2018-08-24T16:39:09.755Z,5.67
2018-08-24T16:41:41.574Z,5.47
2018-08-24T16:47:25.562Z,5.30
2018-08-24T16:49:59.684Z,4.97
2018-08-24T16:52:29.043Z,5.10
2018-08-24T16:54:58.843Z,5.10
2018-08-24T16:57:36.138Z,4.63
2018-08-24T17:00:06.540Z,6.30
2018-08-24T17:02:36.569Z,4.93
2018-08-24T17:05:11.171Z,4.90
2018-08-24T17:07:40.779Z,5.27
2018-08-24T17:10:09.803Z,6.13
2018-08-24T17:12:39.316Z,59.27
2018-08-24T17:15:08.045Z,39.67
2018-08-24T17:17:36.966Z,10.53
2018-08-24T17:20:06.221Z,9.53
2018-08-24T17:22:40.155Z,6.67
2018-08-24T17:25:10.400Z,6.53
2018-08-24T17:27:42.902Z,5.97
2018-08-24T17:30:13.404Z,5.67
2018-08-24T17:32:42.602Z,5.80
2018-08-24T17:35:12.286Z,6.40
2018-08-24T17:37:49.597Z,5.37
2018-08-24T17:40:18.163Z,5.03
2018-08-24T17:42:49.141Z,5.00
2018-08-24T17:45:18.222Z,5.93
2018-08-24T17:47:58.606Z,5.13
2018-08-24T17:50:28.747Z,5.17
2018-08-24T17:52:59.321Z,5.00
2018-08-24T17:55:30.679Z,27.90
2018-08-24T17:58:01.086Z,53.33
2018-08-24T18:00:29.919Z,19.50
2018-08-24T18:03:00.322Z,24.93
2018-08-24T18:05:30.036Z,24.27
2018-08-24T18:08:10.473Z,27.43
2018-08-24T18:10:40.321Z,15.83
2018-08-24T18:13:12.818Z,22.93
2018-08-24T18:15:42.231Z,8.37
2018-08-24T18:18:15.089Z,6.40
2018-08-24T18:20:46.554Z,18.23
2018-08-24T18:23:17.728Z,42.13
2018-08-24T18:25:48.767Z,80.80
2018-08-24T18:28:23.115Z,26.57
2018-08-24T18:30:53.494Z,23.03
2018-08-24T18:33:24.645Z,24.07
2018-08-24T18:35:55.022Z,24.40
2018-08-24T18:38:26.474Z,21.87
2018-08-24T18:40:56.779Z,23.40
2018-08-24T18:43:27.195Z,21.17
2018-08-24T18:45:57.002Z,21.93
2018-08-24T18:48:34.252Z,20.43
2018-08-24T18:51:09.713Z,20.00
2018-08-24T18:53:42.022Z,18.67
2018-08-24T18:56:13.250Z,18.33
2018-08-24T18:58:56.401Z,18.17
2018-08-24T19:01:28.017Z,16.63
2018-08-24T19:03:57.729Z,15.43
2018-08-24T19:06:28.241Z,15.90
2018-08-24T19:08:59.381Z,13.40
2018-08-24T19:11:42.027Z,12.83
2018-08-24T19:14:12.105Z,15.13
2018-08-24T19:16:42.777Z,12.80
2018-08-24T19:19:25.231Z,11.80
2018-08-24T19:22:00.163Z,12.17
2018-08-24T19:24:30.093Z,10.67
2018-08-24T19:27:02.653Z,11.83
2018-08-24T19:29:41.845Z,12.07
2018-08-24T19:32:12.680Z,10.83
2018-08-24T19:34:42.210Z,11.30
2018-08-24T19:37:11.879Z,11.00
2018-08-24T19:39:47.918Z,11.23
2018-08-24T19:42:23.733Z,11.00
2018-08-24T19:44:52.377Z,9.80
2018-08-24T19:47:27.589Z,10.13
2018-08-24T19:50:07.160Z,9.60
2018-08-24T19:52:36.297Z,9.50
2018-08-24T19:55:05.473Z,9.67
2018-08-24T19:57:40.965Z,9.23
2018-08-24T20:00:10.708Z,8.57
2018-08-24T20:02:42.317Z,8.20
2018-08-24T20:05:19.074Z,8.27
2018-08-24T20:07:54.012Z,8.40
2018-08-24T20:10:32.273Z,8.03
2018-08-24T20:13:00.990Z,7.60
2018-08-24T20:15:35.315Z,7.93
2018-08-24T20:18:05.512Z,8.03
2018-08-24T20:20:42.191Z,7.23
2018-08-24T20:23:11.545Z,6.77
2018-08-24T20:25:41.194Z,6.60
2018-08-24T20:28:10.526Z,7.40
2018-08-24T20:30:39.616Z,7.03
2018-08-24T20:33:08.152Z,6.33
2018-08-24T20:35:37.313Z,6.27
2018-08-24T20:38:07.175Z,6.43
2018-08-24T20:40:36.043Z,6.30
2018-08-24T20:43:13.433Z,5.57
2018-08-24T20:45:42.353Z,5.87
2018-08-24T20:48:12.394Z,5.50
2018-08-24T20:50:42.253Z,5.77
2018-08-24T20:53:10.895Z,5.40
2018-08-24T20:55:40.193Z,5.67
2018-08-24T20:58:09.149Z,5.10
2018-08-24T21:01:02.011Z,5.67
2018-08-24T21:03:33.359Z,5.40
2018-08-24T21:06:02.291Z,5.20
2018-08-24T21:08:44.750Z,5.23
2018-08-24T21:11:15.956Z,4.27
2018-08-24T21:13:51.699Z,4.27
2018-08-24T21:16:21.698Z,4.00
2018-08-24T21:18:50.242Z,4.23
2018-08-24T21:21:19.108Z,3.97
2018-08-24T21:23:50.191Z,4.77
2018-08-24T21:26:18.806Z,4.77
2018-08-24T21:28:48.630Z,3.77
2018-08-24T21:31:19.386Z,4.10
2018-08-24T21:33:51.639Z,4.00
2018-08-24T21:36:21.080Z,3.90
2018-08-24T21:38:49.867Z,3.53
2018-08-24T21:41:19.251Z,3.73
2018-08-24T21:46:40.571Z,3.10
2018-08-24T21:49:09.497Z,3.57
2018-08-24T21:51:38.961Z,3.77
2018-08-24T21:54:08.567Z,3.47
2018-08-24T21:56:41.990Z,3.40
2018-08-24T21:59:11.078Z,3.10
2018-08-24T22:01:39.660Z,3.33
2018-08-24T22:04:09.849Z,3.30
2018-08-24T22:06:38.382Z,2.87
2018-08-24T22:09:08.821Z,2.73
2018-08-24T22:11:38.359Z,3.17
2018-08-24T22:22:13.618Z,3.47
2018-08-24T22:24:43.166Z,2.47
2018-08-24T22:27:12.595Z,2.63
2018-08-24T22:29:41.916Z,2.80
2018-08-24T22:32:12.255Z,2.63
2018-08-24T22:34:41.028Z,2.63
2018-08-24T22:37:10.446Z,3.00
2018-08-24T22:39:38.989Z,2.60
2018-08-24T22:42:07.512Z,2.77
2018-08-24T22:44:37.253Z,2.77
2018-08-24T22:47:10.245Z,2.40
2018-08-24T22:49:39.492Z,2.60
2018-08-24T22:52:09.345Z,2.40
2018-08-24T22:54:39.254Z,2.40
2018-08-24T22:57:08.694Z,2.47
2018-08-24T22:59:37.370Z,2.50
2018-08-24T23:02:05.927Z,2.27
2018-08-24T23:04:36.605Z,2.63
2018-08-24T23:07:05.254Z,2.30
2018-08-24T23:09:34.873Z,2.27
2018-08-24T23:12:07.026Z,2.60
2018-08-24T23:14:35.779Z,2.60
2018-08-24T23:17:06.821Z,2.30
2018-08-24T23:19:36.103Z,2.43
2018-08-24T23:22:05.448Z,2.23
2018-08-24T23:24:33.961Z,2.30
2018-08-24T23:27:03.285Z,2.73
2018-08-24T23:29:32.421Z,2.20
2018-08-24T23:32:00.983Z,2.37
2018-08-24T23:34:30.097Z,2.30
2018-08-24T23:37:00.693Z,2.40
2018-08-24T23:39:30.735Z,2.07
2018-08-24T23:42:23.507Z,1.80
2018-08-24T23:44:53.159Z,2.60
2018-08-24T23:47:21.791Z,2.20
2018-08-24T23:49:50.764Z,1.90
2018-08-24T23:52:23.028Z,2.20
2018-08-24T23:54:51.855Z,2.20
2018-08-24T23:57:21.096Z,2.03
2018-08-24T23:59:50.824Z,1.90
